Latest Weather Observations for Armidale Airport

IDN60801

Issued at 7:32 pm EDT Thursday 19 January 2017 (issued every 30 minutes, with the page automatically refreshed every 10 minutes)

About weather observations | Map of weather stations | Latest weather observations for NSW | Other Formats
Station Details ID: 056238 Name: ARMIDALE AIRPORT AWS Lat: -30.53 Lon: 151.62 Height: 1079.0 m
Data from the previous 72 hours. | See also: Recent months at Armidale Airport
Date/Time
EDT
Temp
°C
App
Temp
°C
Dew
Point
°C
Rel
Hum
%
Delta-T
°C
Wind Press
QNH
hPa
Press
MSL
hPa
Rain since
9am
mm
Dir  Spd
km/h
Gust
km/h
Spd
kts
Gust
kts
19/07:30pm 18.8 16.7 17.1 90 1.1 ESE 24 35 13 19 1014.1 1008.1 0.0
19/07:00pm 19.2 17.1 17.2 88 1.3 ESE 24 35 13 19 1013.8 1007.8 0.0
19/06:30pm 20.2 18.1 17.2 83 1.9 ESE 24 33 13 18 1013.6 1007.6 0.0
19/06:00pm 21.2 19.2 17.4 79 2.4 E 24 33 13 18 1013.6 1007.6 0.0
19/05:30pm 22.4 19.5 17.1 72 3.4 ESE 28 39 15 21 1013.3 1007.2 0.0
19/05:00pm 24.9 22.3 17.9 65 4.6 E 28 39 15 21 1013.1 1007.1 0.0
19/04:30pm 26.3 24.5 17.9 60 5.5 ESE 24 33 13 18 1013.4 1007.3 0.0
19/04:00pm 26.7 24.7 17.5 57 6.0 E 24 33 13 18 1013.5 1007.4 0.0
19/03:30pm 26.9 25.7 18.5 60 5.6 E 22 32 12 17 1014.0 1008.0 0.0
19/03:00pm 26.9 25.9 17.9 57 5.9 ESE 20 28 11 15 1014.3 1008.2 0.0
19/02:30pm 26.7 27.2 18.3 60 5.6 ESE 13 20 7 11 1014.6 1008.6 0.0
19/02:00pm 28.5 30.2 19.4 57 6.2 SSW 9 19 5 10 1014.7 1008.7 0.0
19/01:30pm 27.2 27.4 17.7 56 6.3 NE 13 20 7 11 1015.1 1009.1 0.0
19/01:00pm 26.9 27.6 17.9 57 5.9 E 11 20 6 11 1015.5 1009.5 0.0
19/12:30pm 25.9 26.4 18.3 63 5.0 SE 13 20 7 11 1015.9 1009.9 0.0
19/12:00pm 25.5 25.8 17.9 63 5.0 E 13 20 7 11 1016.3 1010.3 0.0
19/11:30am 24.7 24.7 18.2 67 4.3 ESE 15 22 8 12 1016.6 1010.6 0.0
19/11:00am 23.9 23.5 17.2 66 4.3 E 15 30 8 16 1016.8 1010.8 0.0
19/10:30am 23.4 22.8 17.6 70 3.8 E 17 24 9 13 1016.8 1010.8 0.0
19/10:00am 22.5 21.4 17.4 73 3.3 E 19 28 10 15 1016.9 1010.9 0.0
19/09:30am 22.1 20.7 17.9 77 2.7 E 22 28 12 15 1017.0 1011.1 0.0
19/09:00am 20.6 19.2 18.0 85 1.7 E 22 28 12 15 1017.1 1011.2 0.0
19/08:37am 19.6 17.8 17.9 90 1.1 E 24 32 13 17 1017.0 1011.1 0.0
19/08:30am 19.6 18.3 18.1 91 1.0 ENE 22 30 12 16 1017.0 1011.1 0.0
19/08:00am 19.1 17.8 18.1 94 0.6 E 22 30 12 16 1016.9 1010.9 0.0
19/07:30am 19.1 17.1 18.4 96 0.5 ENE 26 35 14 19 1016.6 1010.6 0.0
19/07:00am 18.8 17.6 18.3 97 0.3 E 22 32 12 17 1016.4 1010.4 0.0
19/06:30am 18.6 18.4 18.4 99 0.1 ESE 17 20 9 11 1016.1 1010.2 0.0
19/06:00am 19.1 18.9 18.4 96 0.5 E 17 20 9 11 1015.7 1009.7 0.0
19/05:30am 19.4 19.3 18.7 96 0.5 E 17 22 9 12 1015.4 1009.4 0.0
19/05:00am 19.1 19.6 18.4 96 0.5 ESE 13 19 7 10 1015.1 1009.1 0.0
19/04:30am 18.9 19.2 17.9 94 0.6 ESE 13 17 7 9 1014.9 1008.9 0.0
19/04:18am 18.8 19.0 17.6 93 0.8 E 13 15 7 8 1014.8 1008.8 0.0
19/04:00am 19.2 19.0 17.7 91 1.0 ESE 15 20 8 11 1014.8 1008.8 0.0
19/03:30am 19.4 19.6 16.8 85 1.6 ESE 11 15 6 8 1014.8 1008.8 0.0
19/03:00am 20.2 20.0 16.6 80 2.3 ESE 13 17 7 9 1015.1 1009.1 0.0
19/02:30am 20.7 20.3 16.3 76 2.8 E 13 19 7 10 1015.0 1009.0 0.0
19/02:00am 21.4 20.9 15.9 71 3.5 E 13 17 7 9 1015.3 1009.3 0.0
19/01:30am 21.9 21.2 15.5 67 4.0 ESE 13 17 7 9 1015.8 1009.8 0.0
19/01:00am 21.3 21.5 15.8 71 3.5 ESE 9 13 5 7 1016.3 1010.3 0.0
19/12:30am 20.6 21.5 16.6 78 2.5 E 7 11 4 6 1016.6 1010.6 0.0
19/12:00am 21.0 21.5 16.6 76 2.8 SE 9 13 5 7 1016.7 1010.7 0.0
 
Date/Time
EDT
Temp
°C
App
Temp
°C
Dew
Point
°C
Rel
Hum
%
Delta-T
°C
Wind Press
QNH
hPa
Press
MSL
hPa
Rain since
9am
mm
Dir  Spd
km/h
Gust
km/h
Spd
kts
Gust
kts
18/11:30pm 21.3 19.9 16.5 74 3.0 W 19 24 10 13 1016.5 1010.5 0.0
18/11:00pm 21.6 19.5 16.3 72 3.4 WNW 22 26 12 14 1016.9 1010.9 0.0
18/10:30pm 21.9 19.7 14.8 64 4.4 W 20 24 11 13 1017.5 1011.5 0.0
18/10:00pm 22.3 19.4 16.1 68 3.9 SW 26 35 14 19 1017.6 1011.6 0.0
18/09:30pm 21.8 18.7 18.4 81 2.2 SW 32 46 17 25 1017.7 1011.7 0.0
18/09:00pm 23.4 21.5 17.6 70 3.8 SW 24 57 13 31 1017.6 1011.6 0.0
18/08:58pm 24.9 23.7 17.1 62 5.1 SW 19 50 10 27 1017.7 1011.7 0.0
18/08:30pm 25.3 24.3 15.6 55 6.2 WNW 15 19 8 10 1016.1 1010.2 0.0
18/08:00pm 25.8 25.4 16.1 55 6.2 WNW 13 17 7 9 1015.6 1009.6 0.0
18/07:30pm 26.6 26.2 16.2 52 6.7 WNW 13 15 7 8 1015.0 1009.0 0.0
18/07:00pm 28.2 27.8 16.1 47 7.8 WNW 13 17 7 9 1014.8 1008.8 0.0
18/06:30pm 29.8 27.8 15.5 42 9.2 WNW 20 28 11 15 1014.4 1008.3 0.0
18/06:00pm 30.2 28.0 15.9 42 9.3 W 22 30 12 16 1014.4 1008.3 0.0
18/05:30pm 30.2 27.7 16.2 42 9.1 WNW 24 32 13 17 1014.4 1008.3 0.0
18/05:00pm 30.4 28.7 17.1 44 8.8 WNW 22 30 12 16 1014.6 1008.6 0.0
18/04:30pm 29.5 25.9 16.3 45 8.6 WNW 30 39 16 21 1015.1 1009.1 0.0
18/04:00pm 29.8 26.5 16.9 45 8.5 WNW 30 41 16 22 1015.7 1009.7 0.0
18/03:30pm 29.8 27.6 17.9 48 7.9 W 26 35 14 19 1016.3 1010.3 0.0
18/03:00pm 28.6 25.6 16.8 48 7.7 W 28 35 15 19 1016.6 1010.6 0.0
18/02:30pm 28.5 26.0 17.1 50 7.5 W 26 33 14 18 1017.0 1011.1 0.0
18/02:00pm 28.3 25.8 17.2 51 7.3 W 26 35 14 19 1017.5 1011.5 0.0
18/01:30pm 27.7 24.9 17.3 53 6.8 WSW 28 35 15 19 1017.9 1012.0 0.0
18/01:00pm 27.8 23.3 16.4 50 7.4 W 35 46 19 25 1018.1 1012.2 0.0
18/12:30pm 28.5 24.7 16.7 48 7.7 WNW 32 44 17 24 1018.4 1012.4 0.0
18/12:00pm 28.2 25.1 17.4 52 7.1 W 30 39 16 21 1018.6 1012.6 0.0
18/11:30am 27.5 24.3 18.2 57 6.2 WNW 32 43 17 23 1018.8 1012.9 0.0
18/11:00am 27.5 24.8 18.5 58 6.0 WNW 30 41 16 22 1019.0 1013.1 0.0
18/10:30am 26.5 23.0 17.8 58 5.7 W 33 43 18 23 1019.3 1013.3 0.0
18/10:00am 25.7 22.2 17.4 60 5.4 W 32 41 17 22 1019.3 1013.3 0.0
18/09:30am 25.6 22.5 17.5 61 5.3 WNW 30 39 16 21 1019.1 1013.2 0.0
18/09:00am 24.9 22.1 17.4 63 4.9 WNW 28 41 15 22 1019.4 1013.4 0.0
18/08:30am 23.9 21.1 17.4 67 4.2 NW 28 41 15 22 1019.3 1013.3 0.0
18/08:00am 23.0 20.7 17.5 71 3.6 NW 26 39 14 21 1019.3 1013.3 0.0
18/07:30am 22.1 19.8 17.5 75 3.0 NW 26 35 14 19 1019.0 1013.1 0.0
18/07:00am 20.9 19.1 16.9 78 2.5 NW 22 30 12 16 1018.7 1012.8 0.0
18/06:30am 20.0 18.5 16.8 82 2.0 NW 20 30 11 16 1018.5 1012.5 0.0
18/06:00am 19.6 18.3 16.8 84 1.8 NW 19 24 10 13 1018.3 1012.3 0.0
18/05:30am 20.1 18.7 16.9 82 2.0 NW 20 26 11 14 1017.9 1012.0 0.0
18/05:00am 20.3 19.0 16.9 81 2.2 WNW 19 24 10 13 1017.7 1011.7 0.0
18/04:30am 20.1 19.1 16.7 81 2.2 WNW 17 24 9 13 1017.5 1011.5 0.0
18/04:00am 20.0 19.2 17.0 83 1.9 WNW 17 20 9 11 1017.5 1011.5 0.0
18/03:30am 19.7 19.3 16.3 81 2.1 NW 13 17 7 9 1017.6 1011.6 0.0
18/03:00am 20.2 19.4 16.0 77 2.6 NW 15 20 8 11 1017.6 1011.6 0.0
18/02:30am 21.0 20.2 16.0 73 3.1 NW 15 17 8 9 1017.6 1011.6 0.0
18/02:00am 21.4 20.7 15.3 68 3.8 NNW 13 20 7 11 1017.9 1012.0 0.0
18/01:30am 21.8 20.8 15.6 68 3.9 NW 15 20 8 11 1018.0 1012.1 0.0
18/01:00am 20.9 22.3 16.3 75 2.9 NE 4 11 2 6 1018.5 1012.5 0.0
18/12:30am 22.3 22.3 16.3 69 3.8 NNW 11 15 6 8 1018.8 1012.9 0.0
18/12:00am 22.2 22.0 16.7 71 3.5 NNW 13 17 7 9 1019.1 1013.2 0.0
 
Date/Time
EDT
Temp
°C
App
Temp
°C
Dew
Point
°C
Rel
Hum
%
Delta-T
°C
Wind Press
QNH
hPa
Press
MSL
hPa
Rain since
9am
mm
Dir  Spd
km/h
Gust
km/h
Spd
kts
Gust
kts
17/11:30pm 21.5 21.8 17.1 76 2.8 NE 11 11 6 6 1019.6 1013.7 0.0
17/11:00pm 22.0 22.6 16.9 73 3.3 NNE 9 11 5 6 1019.8 1013.9 0.0
17/10:30pm 21.6 22.1 16.6 73 3.2 N 9 11 5 6 1019.9 1014.0 0.0
17/10:00pm 22.8 23.5 17.0 70 3.7 WNW 9 11 5 6 1019.8 1013.9 0.0
17/09:30pm 22.9 24.0 17.1 70 3.7 NW 7 9 4 5 1019.6 1013.7 0.0
17/09:00pm 23.3 23.3 17.1 68 4.0 NW 13 15 7 8 1019.4 1013.4 0.0
17/08:30pm 23.9 23.8 16.9 65 4.5 NW 13 13 7 7 1019.4 1013.4 0.0
17/08:00pm 24.9 25.5 17.6 64 4.8 NW 11 13 6 7 1019.3 1013.3 0.0
17/07:30pm 27.4 27.8 17.3 54 6.6 WNW 11 13 6 7 1019.0 1013.1 0.0
17/07:00pm 28.5 27.7 17.1 50 7.5 WNW 17 22 9 12 1018.7 1012.8 0.0
17/06:30pm 29.3 28.4 16.8 47 8.2 WNW 17 28 9 15 1018.6 1012.6 0.0
17/06:00pm 30.0 30.3 17.8 48 8.1 W 13 17 7 9 1018.6 1012.6 0.0
17/05:30pm 29.7 28.9 17.2 47 8.2 W 17 22 9 12 1018.7 1012.8 0.0
17/05:00pm 29.6 29.6 17.1 47 8.2 WNW 13 24 7 13 1018.8 1012.9 0.0
17/04:30pm 30.0 30.6 17.8 48 8.1 NW 11 17 6 9 1018.9 1013.0 0.0
17/04:00pm 30.0 30.1 18.4 49 7.8 NW 15 20 8 11 1019.1 1013.2 0.0
17/03:30pm 29.2 28.4 17.1 48 7.9 NW 17 26 9 14 1019.5 1013.6 0.0
17/03:00pm 29.0 28.8 17.5 49 7.6 WNW 15 20 8 11 1019.8 1013.9 0.0
17/02:30pm 28.7 28.7 18.2 53 7.0 W 15 20 8 11 1020.0 1014.1 0.0
17/02:00pm 28.5 29.0 19.2 57 6.3 WNW 15 30 8 16 1020.4 1014.5 0.0
17/01:30pm 27.5 27.7 19.3 61 5.5 W 17 24 9 13 1020.9 1015.0 0.0
17/01:00pm 27.3 27.7 19.9 64 5.0 WNW 17 22 9 12 1021.1 1015.2 0.0
17/12:30pm 27.1 27.6 20.0 65 4.8 W 17 28 9 15 1021.6 1015.7 0.0
17/12:00pm 26.1 25.8 19.2 65 4.6 WNW 19 24 10 13 1021.8 1015.9 0.0
17/11:30am 25.6 24.8 19.3 68 4.2 W 22 30 12 16 1022.1 1016.3 0.0
17/11:00am 25.4 24.6 19.3 69 4.1 NW 22 32 12 17 1022.1 1016.3 0.0
17/10:30am 25.0 23.6 18.9 69 4.1 WNW 24 32 13 17 1022.2 1016.4 0.0
17/10:00am 24.2 24.2 19.7 76 3.0 WNW 19 24 10 13 1022.2 1016.4 0.0
17/09:30am 23.7 23.3 19.4 77 2.9 WNW 20 28 11 15 1022.4 1016.5 0.0
17/09:00am 23.4 23.2 19.3 78 2.7 WNW 19 26 10 14 1022.1 1016.3 0.0
17/08:30am 22.6 22.1 18.6 78 2.6 WNW 19 22 10 12 1022.1 1016.3 0.0
17/08:00am 21.5 22.6 18.9 85 1.7 WNW 11 13 6 7 1022.1 1016.3 0.0
17/07:30am 20.1 22.5 19.6 97 0.3 WNW 6 7 3 4 1021.7 1015.8 0.0
17/07:00am 18.1 21.0 18.1 100 0.0 CALM 0 0 0 0 1021.5 1015.6 0.0
17/06:30am 17.3 18.7 17.3 100 0.0 SE 6 7 3 4 1021.3 1015.4 0.0
17/06:00am 17.0 19.0 17.0 100 0.0 ENE 2 6 1 3 1020.8 1014.9 0.0
17/05:30am 17.3 19.1 17.3 100 0.0 ENE 4 6 2 3 1020.5 1014.6 0.0
17/05:00am 17.1 18.4 17.1 100 0.0 E 6 7 3 4 1020.1 1014.2 0.0
17/04:30am 17.2 18.3 17.2 100 0.0 ESE 7 7 4 4 1019.9 1014.0 0.0
17/04:00am 17.2 18.0 17.2 100 0.0 E 9 11 5 6 1020.0 1014.1 0.0
17/03:30am 17.4 17.9 17.4 100 0.0 E 11 13 6 7 1020.1 1014.2 0.0
17/03:00am 17.8 18.4 17.8 100 0.0 E 11 13 6 7 1020.3 1014.3 0.0
17/02:30am 18.0 18.7 18.0 100 0.0 E 11 13 6 7 1020.3 1014.3 0.0
17/02:00am 17.9 18.2 17.9 100 0.0 ENE 13 15 7 8 1020.4 1014.5 0.0
17/01:30am 18.0 18.3 18.0 100 0.0 ENE 13 15 7 8 1020.5 1014.6 0.0
17/01:00am 18.2 18.6 18.2 100 0.0 ENE 13 15 7 8 1020.7 1014.8 0.0
17/12:30am 18.4 18.9 18.4 100 0.0 ENE 13 17 7 9 1020.9 1015.0 0.0
17/12:00am 18.5 18.7 18.5 100 0.0 E 15 19 8 10 1021.0 1015.1 0.0
 
Date/Time
EDT
Temp
°C
App
Temp
°C
Dew
Point
°C
Rel
Hum
%
Delta-T
°C
Wind Press
QNH
hPa
Press
MSL
hPa
Rain since
9am
mm
Dir  Spd
km/h
Gust
km/h
Spd
kts
Gust
kts
16/11:30pm 18.7 18.6 18.7 100 0.0 E 17 20 9 11 1021.0 1015.1 0.0
16/11:00pm 18.9 18.9 18.9 100 0.0 ENE 17 20 9 11 1021.1 1015.2 0.0
16/10:30pm 19.0 19.0 19.0 100 0.0 E 17 20 9 11 1021.3 1015.4 0.0
16/10:00pm 19.3 19.1 19.3 100 0.0 E 19 22 10 12 1021.3 1015.4 0.0
16/09:30pm 19.3 19.4 19.1 99 0.1 E 17 20 9 11 1021.0 1015.1 0.0
16/09:00pm 19.8 19.5 19.1 96 0.5 ESE 19 26 10 14 1020.8 1014.9 0.0
16/08:30pm 20.4 19.9 19.1 92 0.9 E 20 30 11 16 1020.4 1014.5 0.0
16/08:00pm 21.8 21.7 18.8 83 2.0 ESE 17 24 9 13 1020.0 1014.1 0.0

Other Formats:

Comma delimited format used in spreadsheet applications
http://www.bom.gov.au/fwo/IDN60801/IDN60801.95773.axf

JavaScript Object Notation format (JSON) in row-major order
http://www.bom.gov.au/fwo/IDN60801/IDN60801.95773.json